sensor_id;sensor_type;location;lat;lon;timestamp;P1;P2;P0
78512;PMS5003;67809;55.034;73.462;2023-04-28T00:00:57;10.25;9.00;7.00
78512;PMS5003;67809;55.034;73.462;2023-04-28T00:03:23;13.00;11.00;7.00
78512;PMS5003;67809;55.034;73.462;2023-04-28T00:05:49;13.00;11.00;8.00
78512;PMS5003;67809;55.034;73.462;2023-04-28T00:08:17;9.50;8.00;6.00
78512;PMS5003;67809;55.034;73.462;2023-04-28T00:10:43;10.00;9.00;6.00
78512;PMS5003;67809;55.034;73.462;2023-04-28T00:13:19;12.00;10.00;7.00
78512;PMS5003;67809;55.034;73.462;2023-04-28T00:15:45;9.00;8.00;6.00
78512;PMS5003;67809;55.034;73.462;2023-04-28T00:18:11;11.00;9.25;7.00
78512;PMS5003;67809;55.034;73.462;2023-04-28T00:20:42;10.75;9.00;7.00
78512;PMS5003;67809;55.034;73.462;2023-04-28T00:23:09;9.50;8.00;6.00
78512;PMS5003;67809;55.034;73.462;2023-04-28T00:25:35;11.00;10.00;7.00
78512;PMS5003;67809;55.034;73.462;2023-04-28T00:28:01;12.00;9.50;7.00
78512;PMS5003;67809;55.034;73.462;2023-04-28T00:30:30;10.00;9.00;7.00
78512;PMS5003;67809;55.034;73.462;2023-04-28T00:32:57;9.00;8.00;6.00
78512;PMS5003;67809;55.034;73.462;2023-04-28T00:35:23;11.67;10.67;8.00
78512;PMS5003;67809;55.034;73.462;2023-04-28T00:37:49;11.00;9.00;7.00
78512;PMS5003;67809;55.034;73.462;2023-04-28T00:40:17;12.00;10.00;8.00
78512;PMS5003;67809;55.034;73.462;2023-04-28T00:42:43;11.00;10.00;7.00
78512;PMS5003;67809;55.034;73.462;2023-04-28T00:45:14;11.00;10.00;7.00
78512;PMS5003;67809;55.034;73.462;2023-04-28T00:47:51;12.00;10.00;7.00
78512;PMS5003;67809;55.034;73.462;2023-04-28T00:50:27;11.25;10.00;7.00
78512;PMS5003;67809;55.034;73.462;2023-04-28T00:52:53;12.75;11.00;7.00
78512;PMS5003;67809;55.034;73.462;2023-04-28T00:55:20;10.00;9.00;7.00
78512;PMS5003;67809;55.034;73.462;2023-04-28T00:57:47;11.00;10.00;8.00
78512;PMS5003;67809;55.034;73.462;2023-04-28T01:00:13;12.00;10.00;8.00
78512;PMS5003;67809;55.034;73.462;2023-04-28T01:02:40;12.00;11.00;8.00
78512;PMS5003;67809;55.034;73.462;2023-04-28T01:05:07;13.00;11.25;9.00
78512;PMS5003;67809;55.034;73.462;2023-04-28T01:07:34;11.25;11.00;8.00
78512;PMS5003;67809;55.034;73.462;2023-04-28T01:10:01;12.00;11.00;8.00
78512;PMS5003;67809;55.034;73.462;2023-04-28T01:12:35;10.00;8.75;6.50
78512;PMS5003;67809;55.034;73.462;2023-04-28T01:15:02;11.25;9.75;7.00
78512;PMS5003;67809;55.034;73.462;2023-04-28T01:17:30;12.00;10.50;8.00
78512;PMS5003;67809;55.034;73.462;2023-04-28T01:19:56;12.50;10.50;7.00
78512;PMS5003;67809;55.034;73.462;2023-04-28T01:22:33;13.00;10.75;8.00
78512;PMS5003;67809;55.034;73.462;2023-04-28T01:25:04;12.00;11.00;7.00
78512;PMS5003;67809;55.034;73.462;2023-04-28T01:27:31;11.75;9.00;7.00
78512;PMS5003;67809;55.034;73.462;2023-04-28T01:29:58;10.50;10.00;8.00
78512;PMS5003;67809;55.034;73.462;2023-04-28T01:32:24;11.00;10.00;7.50
78512;PMS5003;67809;55.034;73.462;2023-04-28T01:34:51;10.00;9.50;7.50
78512;PMS5003;67809;55.034;73.462;2023-04-28T01:37:18;12.00;10.00;7.00
78512;PMS5003;67809;55.034;73.462;2023-04-28T01:39:45;11.00;10.00;8.00
78512;PMS5003;67809;55.034;73.462;2023-04-28T01:42:11;11.00;10.00;7.00
78512;PMS5003;67809;55.034;73.462;2023-04-28T01:44:38;10.25;9.50;7.00
78512;PMS5003;67809;55.034;73.462;2023-04-28T01:47:04;11.00;9.00;7.00
78512;PMS5003;67809;55.034;73.462;2023-04-28T01:49:33;10.00;9.00;7.00
78512;PMS5003;67809;55.034;73.462;2023-04-28T01:52:00;11.00;10.00;7.00
78512;PMS5003;67809;55.034;73.462;2023-04-28T01:54:26;10.00;10.00;7.00
78512;PMS5003;67809;55.034;73.462;2023-04-28T01:56:54;10.00;8.25;6.00
78512;PMS5003;67809;55.034;73.462;2023-04-28T01:59:20;12.00;10.00;7.00
78512;PMS5003;67809;55.034;73.462;2023-04-28T02:01:47;12.00;10.50;8.00
78512;PMS5003;67809;55.034;73.462;2023-04-28T02:04:13;9.50;9.00;7.25
78512;PMS5003;67809;55.034;73.462;2023-04-28T02:06:50;17.00;15.00;10.50
78512;PMS5003;67809;55.034;73.462;2023-04-28T02:09:16;16.00;13.00;9.00
78512;PMS5003;67809;55.034;73.462;2023-04-28T02:11:42;13.00;11.00;8.00
78512;PMS5003;67809;55.034;73.462;2023-04-28T02:14:08;12.00;10.00;7.50
78512;PMS5003;67809;55.034;73.462;2023-04-28T02:16:35;13.67;12.00;8.00
78512;PMS5003;67809;55.034;73.462;2023-04-28T02:19:01;14.00;12.00;9.75
78512;PMS5003;67809;55.034;73.462;2023-04-28T02:21:37;13.50;12.00;8.00
78512;PMS5003;67809;55.034;73.462;2023-04-28T02:24:06;13.00;11.00;8.00
78512;PMS5003;67809;55.034;73.462;2023-04-28T02:26:33;13.00;11.50;8.00
78512;PMS5003;67809;55.034;73.462;2023-04-28T02:28:59;12.50;10.00;8.00
78512;PMS5003;67809;55.034;73.462;2023-04-28T02:31:26;11.00;9.50;6.50
78512;PMS5003;67809;55.034;73.462;2023-04-28T02:33:58;10.00;8.75;6.00
78512;PMS5003;67809;55.034;73.462;2023-04-28T02:36:24;11.00;9.00;8.00
78512;PMS5003;67809;55.034;73.462;2023-04-28T02:38:50;10.00;8.25;7.00
78512;PMS5003;67809;55.034;73.462;2023-04-28T02:41:16;13.50;11.00;7.00
78512;PMS5003;67809;55.034;73.462;2023-04-28T02:43:42;11.25;9.00;7.00
78512;PMS5003;67809;55.034;73.462;2023-04-28T02:46:08;13.00;12.00;8.00
78512;PMS5003;67809;55.034;73.462;2023-04-28T02:48:36;12.00;11.00;7.00
78512;PMS5003;67809;55.034;73.462;2023-04-28T02:51:03;13.00;11.00;8.00
78512;PMS5003;67809;55.034;73.462;2023-04-28T02:53:29;14.00;11.75;8.00
78512;PMS5003;67809;55.034;73.462;2023-04-28T02:55:55;14.00;12.00;9.00
78512;PMS5003;67809;55.034;73.462;2023-04-28T02:58:21;13.25;11.25;8.00
78512;PMS5003;67809;55.034;73.462;2023-04-28T03:00:48;12.00;10.00;8.00
78512;PMS5003;67809;55.034;73.462;2023-04-28T03:03:15;12.00;10.00;6.00
78512;PMS5003;67809;55.034;73.462;2023-04-28T03:05:41;14.00;12.00;8.00
78512;PMS5003;67809;55.034;73.462;2023-04-28T03:08:16;13.25;11.00;8.00
78512;PMS5003;67809;55.034;73.462;2023-04-28T03:10:47;13.00;10.00;8.00
78512;PMS5003;67809;55.034;73.462;2023-04-28T03:13:13;13.00;10.00;7.00
78512;PMS5003;67809;55.034;73.462;2023-04-28T03:15:41;12.00;10.00;7.00
78512;PMS5003;67809;55.034;73.462;2023-04-28T03:18:08;12.00;10.00;6.00
78512;PMS5003;67809;55.034;73.462;2023-04-28T03:20:35;12.00;10.00;7.00
78512;PMS5003;67809;55.034;73.462;2023-04-28T03:23:01;12.00;11.00;7.50
78512;PMS5003;67809;55.034;73.462;2023-04-28T03:25:27;10.00;8.75;6.00
78512;PMS5003;67809;55.034;73.462;2023-04-28T03:27:54;11.25;9.00;7.00
78512;PMS5003;67809;55.034;73.462;2023-04-28T03:30:21;12.00;10.00;7.00
78512;PMS5003;67809;55.034;73.462;2023-04-28T03:32:47;10.25;8.00;6.00
78512;PMS5003;67809;55.034;73.462;2023-04-28T03:35:14;11.00;9.00;6.00
78512;PMS5003;67809;55.034;73.462;2023-04-28T03:37:51;11.00;9.00;7.00
78512;PMS5003;67809;55.034;73.462;2023-04-28T03:40:18;12.00;10.00;7.00
78512;PMS5003;67809;55.034;73.462;2023-04-28T03:43:00;12.75;10.00;7.00
78512;PMS5003;67809;55.034;73.462;2023-04-28T03:45:34;13.00;11.00;7.00
78512;PMS5003;67809;55.034;73.462;2023-04-28T03:48:00;12.00;11.00;8.00
78512;PMS5003;67809;55.034;73.462;2023-04-28T03:50:27;9.00;8.00;6.00
78512;PMS5003;67809;55.034;73.462;2023-04-28T03:53:04;11.25;9.00;7.00
78512;PMS5003;67809;55.034;73.462;2023-04-28T03:55:36;10.00;9.00;7.00
78512;PMS5003;67809;55.034;73.462;2023-04-28T03:58:02;12.25;10.75;7.00
78512;PMS5003;67809;55.034;73.462;2023-04-28T04:00:28;12.00;9.00;6.00
78512;PMS5003;67809;55.034;73.462;2023-04-28T04:02:54;10.75;9.00;6.25
78512;PMS5003;67809;55.034;73.462;2023-04-28T04:05:21;11.00;10.00;7.00
78512;PMS5003;67809;55.034;73.462;2023-04-28T04:07:47;13.00;10.00;7.00
78512;PMS5003;67809;55.034;73.462;2023-04-28T04:10:14;10.25;8.25;6.00
78512;PMS5003;67809;55.034;73.462;2023-04-28T04:12:43;12.00;10.00;6.75
78512;PMS5003;67809;55.034;73.462;2023-04-28T04:15:19;11.00;10.00;7.00
78512;PMS5003;67809;55.034;73.462;2023-04-28T04:17:47;10.00;9.00;6.00
78512;PMS5003;67809;55.034;73.462;2023-04-28T04:20:13;14.00;11.00;8.00
78512;PMS5003;67809;55.034;73.462;2023-04-28T04:22:45;14.00;12.00;9.00
78512;PMS5003;67809;55.034;73.462;2023-04-28T04:25:12;14.00;11.00;7.00
78512;PMS5003;67809;55.034;73.462;2023-04-28T04:27:39;13.00;10.00;7.00
78512;PMS5003;67809;55.034;73.462;2023-04-28T04:30:06;13.00;11.00;8.00
78512;PMS5003;67809;55.034;73.462;2023-04-28T04:32:32;12.50;10.00;6.00
78512;PMS5003;67809;55.034;73.462;2023-04-28T04:34:59;13.00;11.00;8.00
78512;PMS5003;67809;55.034;73.462;2023-04-28T04:37:25;13.75;11.00;8.00
78512;PMS5003;67809;55.034;73.462;2023-04-28T04:39:59;12.25;11.00;7.00
78512;PMS5003;67809;55.034;73.462;2023-04-28T04:42:25;11.75;9.50;6.00
78512;PMS5003;67809;55.034;73.462;2023-04-28T04:45:02;13.00;11.00;7.00
78512;PMS5003;67809;55.034;73.462;2023-04-28T04:47:29;11.00;9.00;7.00
78512;PMS5003;67809;55.034;73.462;2023-04-28T04:49:57;13.00;9.75;6.00
78512;PMS5003;67809;55.034;73.462;2023-04-28T04:52:23;12.00;10.00;7.00
78512;PMS5003;67809;55.034;73.462;2023-04-28T04:54:50;11.00;9.00;6.00
78512;PMS5003;67809;55.034;73.462;2023-04-28T04:57:17;13.00;10.00;7.00
78512;PMS5003;67809;55.034;73.462;2023-04-28T05:00:03;10.00;8.00;6.00
78512;PMS5003;67809;55.034;73.462;2023-04-28T05:02:32;14.75;11.00;8.00
78512;PMS5003;67809;55.034;73.462;2023-04-28T05:04:59;13.00;10.00;6.00
78512;PMS5003;67809;55.034;73.462;2023-04-28T05:07:25;11.00;10.00;7.00
78512;PMS5003;67809;55.034;73.462;2023-04-28T05:09:53;12.00;10.00;6.00
78512;PMS5003;67809;55.034;73.462;2023-04-28T05:12:24;9.00;7.00;5.00
78512;PMS5003;67809;55.034;73.462;2023-04-28T05:14:51;11.50;9.75;6.00
78512;PMS5003;67809;55.034;73.462;2023-04-28T05:17:19;11.00;9.00;6.00
78512;PMS5003;67809;55.034;73.462;2023-04-28T05:19:46;13.00;11.00;7.00
78512;PMS5003;67809;55.034;73.462;2023-04-28T05:22:18;13.00;10.00;7.00
78512;PMS5003;67809;55.034;73.462;2023-04-28T05:24:49;13.50;10.00;7.00
78512;PMS5003;67809;55.034;73.462;2023-04-28T05:27:15;10.00;8.00;5.50
78512;PMS5003;67809;55.034;73.462;2023-04-28T05:29:41;12.50;9.50;6.25
78512;PMS5003;67809;55.034;73.462;2023-04-28T05:32:09;13.00;10.00;6.00
78512;PMS5003;67809;55.034;73.462;2023-04-28T05:34:35;10.50;9.00;7.00
78512;PMS5003;67809;55.034;73.462;2023-04-28T05:37:01;12.25;10.00;7.00
78512;PMS5003;67809;55.034;73.462;2023-04-28T05:39:29;12.00;9.00;6.00
78512;PMS5003;67809;55.034;73.462;2023-04-28T05:41:58;13.00;10.00;7.00
78512;PMS5003;67809;55.034;73.462;2023-04-28T05:44:24;10.50;8.50;5.50
78512;PMS5003;67809;55.034;73.462;2023-04-28T05:46:50;11.00;9.00;6.00
78512;PMS5003;67809;55.034;73.462;2023-04-28T05:49:21;12.50;10.00;7.00
78512;PMS5003;67809;55.034;73.462;2023-04-28T05:51:47;12.00;9.25;6.00
78512;PMS5003;67809;55.034;73.462;2023-04-28T05:54:14;11.75;8.50;5.75
78512;PMS5003;67809;55.034;73.462;2023-04-28T05:56:45;15.00;11.33;7.67
78512;PMS5003;67809;55.034;73.462;2023-04-28T05:59:11;12.00;9.50;7.00
78512;PMS5003;67809;55.034;73.462;2023-04-28T06:01:37;16.00;13.00;8.00
78512;PMS5003;67809;55.034;73.462;2023-04-28T06:04:04;14.75;11.00;7.75
78512;PMS5003;67809;55.034;73.462;2023-04-28T06:06:30;13.00;10.00;7.00
78512;PMS5003;67809;55.034;73.462;2023-04-28T06:08:58;15.00;12.00;8.00
78512;PMS5003;67809;55.034;73.462;2023-04-28T06:11:35;15.00;12.00;7.00
78512;PMS5003;67809;55.034;73.462;2023-04-28T06:14:01;16.75;13.00;9.00
78512;PMS5003;67809;55.034;73.462;2023-04-28T06:16:27;17.00;14.00;10.00
78512;PMS5003;67809;55.034;73.462;2023-04-28T06:18:53;14.00;12.00;7.25
78512;PMS5003;67809;55.034;73.462;2023-04-28T06:21:20;21.00;16.00;10.00
78512;PMS5003;67809;55.034;73.462;2023-04-28T06:23:51;19.00;14.00;9.00
78512;PMS5003;67809;55.034;73.462;2023-04-28T06:26:17;21.50;16.00;10.00
78512;PMS5003;67809;55.034;73.462;2023-04-28T06:28:44;19.00;15.00;10.00
78512;PMS5003;67809;55.034;73.462;2023-04-28T06:31:15;23.00;17.00;12.00
78512;PMS5003;67809;55.034;73.462;2023-04-28T06:33:42;18.50;14.00;10.00
78512;PMS5003;67809;55.034;73.462;2023-04-28T06:36:08;18.00;15.00;10.00
78512;PMS5003;67809;55.034;73.462;2023-04-28T06:38:34;18.00;13.50;10.00
78512;PMS5003;67809;55.034;73.462;2023-04-28T06:41:00;19.50;15.00;10.25
78512;PMS5003;67809;55.034;73.462;2023-04-28T06:43:29;21.00;17.00;12.00
78512;PMS5003;67809;55.034;73.462;2023-04-28T06:46:07;16.00;12.50;9.00
78512;PMS5003;67809;55.034;73.462;2023-04-28T06:48:39;19.00;14.00;11.00
78512;PMS5003;67809;55.034;73.462;2023-04-28T06:51:06;19.50;15.00;11.00
78512;PMS5003;67809;55.034;73.462;2023-04-28T06:53:40;17.00;13.50;9.50
78512;PMS5003;67809;55.034;73.462;2023-04-28T06:56:07;19.00;15.00;11.00
78512;PMS5003;67809;55.034;73.462;2023-04-28T06:58:34;16.25;14.00;10.00
78512;PMS5003;67809;55.034;73.462;2023-04-28T07:01:11;16.75;14.00;9.00
78512;PMS5003;67809;55.034;73.462;2023-04-28T07:03:37;15.00;12.50;9.00
78512;PMS5003;67809;55.034;73.462;2023-04-28T07:06:09;13.00;11.00;7.00
78512;PMS5003;67809;55.034;73.462;2023-04-28T07:08:37;14.00;11.00;8.00
78512;PMS5003;67809;55.034;73.462;2023-04-28T07:11:03;17.00;12.00;8.00
78512;PMS5003;67809;55.034;73.462;2023-04-28T07:13:31;14.50;12.00;8.00
78512;PMS5003;67809;55.034;73.462;2023-04-28T07:15:57;15.00;11.00;8.00
78512;PMS5003;67809;55.034;73.462;2023-04-28T07:18:24;11.67;10.00;7.00
78512;PMS5003;67809;55.034;73.462;2023-04-28T07:20:50;13.00;10.75;8.00
78512;PMS5003;67809;55.034;73.462;2023-04-28T07:23:19;12.00;10.00;7.25
78512;PMS5003;67809;55.034;73.462;2023-04-28T07:25:46;11.00;9.00;6.00
78512;PMS5003;67809;55.034;73.462;2023-04-28T07:28:12;11.00;8.67;6.00
78512;PMS5003;67809;55.034;73.462;2023-04-28T07:30:39;14.50;11.00;7.00
78512;PMS5003;67809;55.034;73.462;2023-04-28T07:33:15;10.50;8.75;6.00
78512;PMS5003;67809;55.034;73.462;2023-04-28T07:35:41;12.25;9.50;6.50
78512;PMS5003;67809;55.034;73.462;2023-04-28T07:38:15;10.00;8.75;6.00
78512;PMS5003;67809;55.034;73.462;2023-04-28T07:40:41;11.00;8.00;6.00
78512;PMS5003;67809;55.034;73.462;2023-04-28T07:43:09;10.00;9.00;6.00
78512;PMS5003;67809;55.034;73.462;2023-04-28T07:45:38;11.00;9.00;6.00
78512;PMS5003;67809;55.034;73.462;2023-04-28T07:48:05;9.00;8.00;5.00
78512;PMS5003;67809;55.034;73.462;2023-04-28T07:50:36;9.00;7.00;5.00
78512;PMS5003;67809;55.034;73.462;2023-04-28T07:53:02;10.00;7.50;5.00
78512;PMS5003;67809;55.034;73.462;2023-04-28T07:55:28;12.00;8.00;5.00
78512;PMS5003;67809;55.034;73.462;2023-04-28T07:57:54;8.67;8.00;6.00
78512;PMS5003;67809;55.034;73.462;2023-04-28T08:00:31;15.75;13.00;8.50
78512;PMS5003;67809;55.034;73.462;2023-04-28T08:02:57;10.00;8.00;5.00
78512;PMS5003;67809;55.034;73.462;2023-04-28T08:05:23;11.00;8.00;5.00
78512;PMS5003;67809;55.034;73.462;2023-04-28T08:07:50;10.00;8.00;5.00
78512;PMS5003;67809;55.034;73.462;2023-04-28T08:10:16;13.00;10.00;6.00
78512;PMS5003;67809;55.034;73.462;2023-04-28T08:12:42;10.00;8.00;6.00
78512;PMS5003;67809;55.034;73.462;2023-04-28T08:15:10;9.25;7.25;5.00
78512;PMS5003;67809;55.034;73.462;2023-04-28T08:17:36;10.00;7.00;5.00
78512;PMS5003;67809;55.034;73.462;2023-04-28T08:20:08;10.00;8.00;6.00
78512;PMS5003;67809;55.034;73.462;2023-04-28T08:22:34;8.75;7.00;5.00
78512;PMS5003;67809;55.034;73.462;2023-04-28T08:25:11;8.00;7.00;5.00
78512;PMS5003;67809;55.034;73.462;2023-04-28T08:27:48;8.00;7.00;5.00
78512;PMS5003;67809;55.034;73.462;2023-04-28T08:30:14;7.00;6.00;5.00
78512;PMS5003;67809;55.034;73.462;2023-04-28T08:32:40;9.50;8.00;5.00
78512;PMS5003;67809;55.034;73.462;2023-04-28T08:35:06;10.00;8.25;6.00
78512;PMS5003;67809;55.034;73.462;2023-04-28T08:37:32;10.00;9.00;6.00
78512;PMS5003;67809;55.034;73.462;2023-04-28T08:40:08;9.00;8.00;6.00
78512;PMS5003;67809;55.034;73.462;2023-04-28T08:42:35;9.00;8.00;5.00
78512;PMS5003;67809;55.034;73.462;2023-04-28T08:45:03;9.00;8.00;5.00
78512;PMS5003;67809;55.034;73.462;2023-04-28T08:50:09;11.00;8.00;6.00
78512;PMS5003;67809;55.034;73.462;2023-04-28T08:52:37;9.00;7.25;6.00
78512;PMS5003;67809;55.034;73.462;2023-04-28T08:55:08;10.00;8.00;6.00
78512;PMS5003;67809;55.034;73.462;2023-04-28T09:00:04;9.00;8.00;5.00
78512;PMS5003;67809;55.034;73.462;2023-04-28T09:02:41;8.00;7.00;5.00
78512;PMS5003;67809;55.034;73.462;2023-04-28T09:05:07;10.00;8.25;6.00
78512;PMS5003;67809;55.034;73.462;2023-04-28T09:07:34;9.00;8.00;6.00
78512;PMS5003;67809;55.034;73.462;2023-04-28T09:12:41;9.25;8.00;6.00
78512;PMS5003;67809;55.034;73.462;2023-04-28T09:15:08;10.25;8.00;6.00
78512;PMS5003;67809;55.034;73.462;2023-04-28T09:17:50;8.00;7.00;5.00
78512;PMS5003;67809;55.034;73.462;2023-04-28T09:20:22;9.00;7.67;6.00
78512;PMS5003;67809;55.034;73.462;2023-04-28T09:22:54;9.00;7.75;6.00
78512;PMS5003;67809;55.034;73.462;2023-04-28T09:25:21;10.00;9.00;6.75
78512;PMS5003;67809;55.034;73.462;2023-04-28T09:27:48;11.25;10.00;7.00
78512;PMS5003;67809;55.034;73.462;2023-04-28T09:30:14;13.00;11.00;9.00
78512;PMS5003;67809;55.034;73.462;2023-04-28T09:32:41;13.00;11.00;8.75
78512;PMS5003;67809;55.034;73.462;2023-04-28T09:35:07;12.75;12.00;9.00
78512;PMS5003;67809;55.034;73.462;2023-04-28T09:37:33;14.50;11.00;8.00
78512;PMS5003;67809;55.034;73.462;2023-04-28T09:40:04;12.00;10.00;7.00
78512;PMS5003;67809;55.034;73.462;2023-04-28T09:42:31;12.00;10.00;7.00
78512;PMS5003;67809;55.034;73.462;2023-04-28T09:44:58;12.00;9.50;7.25
78512;PMS5003;67809;55.034;73.462;2023-04-28T09:47:24;15.00;13.00;10.00
78512;PMS5003;67809;55.034;73.462;2023-04-28T09:49:56;17.25;15.50;11.75
78512;PMS5003;67809;55.034;73.462;2023-04-28T09:52:23;19.00;17.50;13.00
78512;PMS5003;67809;55.034;73.462;2023-04-28T09:55:00;23.00;20.00;14.00
78512;PMS5003;67809;55.034;73.462;2023-04-28T09:57:29;21.00;19.50;15.00
78512;PMS5003;67809;55.034;73.462;2023-04-28T09:59:56;19.00;17.00;12.00
78512;PMS5003;67809;55.034;73.462;2023-04-28T10:02:22;22.00;20.00;14.50
78512;PMS5003;67809;55.034;73.462;2023-04-28T10:04:49;21.00;19.00;15.00
78512;PMS5003;67809;55.034;73.462;2023-04-28T10:07:30;21.50;19.00;15.00
78512;PMS5003;67809;55.034;73.462;2023-04-28T10:10:09;19.00;17.00;12.00
78512;PMS5003;67809;55.034;73.462;2023-04-28T10:12:39;19.00;16.00;12.00
78512;PMS5003;67809;55.034;73.462;2023-04-28T10:15:11;20.00;18.00;13.00
78512;PMS5003;67809;55.034;73.462;2023-04-28T10:17:43;19.00;17.00;12.00
78512;PMS5003;67809;55.034;73.462;2023-04-28T10:20:10;19.00;16.67;13.00
78512;PMS5003;67809;55.034;73.462;2023-04-28T10:22:58;21.00;19.00;13.50
78512;PMS5003;67809;55.034;73.462;2023-04-28T10:25:35;19.00;16.50;12.50
78512;PMS5003;67809;55.034;73.462;2023-04-28T10:28:13;22.00;18.00;14.00
78512;PMS5003;67809;55.034;73.462;2023-04-28T10:30:40;19.00;17.00;12.00
78512;PMS5003;67809;55.034;73.462;2023-04-28T10:38:04;19.00;17.00;13.00
78512;PMS5003;67809;55.034;73.462;2023-04-28T10:40:31;19.67;17.00;12.00
78512;PMS5003;67809;55.034;73.462;2023-04-28T10:42:58;17.75;15.00;11.00
78512;PMS5003;67809;55.034;73.462;2023-04-28T10:48:16;17.25;14.75;11.00
78512;PMS5003;67809;55.034;73.462;2023-04-28T10:56:23;12.00;11.50;8.25
78512;PMS5003;67809;55.034;73.462;2023-04-28T11:01:41;13.00;11.67;8.67
78512;PMS5003;67809;55.034;73.462;2023-04-28T11:04:07;14.00;12.00;8.25
78512;PMS5003;67809;55.034;73.462;2023-04-28T11:06:41;17.00;14.00;10.00
78512;PMS5003;67809;55.034;73.462;2023-04-28T11:11:37;15.00;12.00;8.33
78512;PMS5003;67809;55.034;73.462;2023-04-28T11:16:59;14.00;12.00;9.00
78512;PMS5003;67809;55.034;73.462;2023-04-28T11:19:36;14.00;12.00;10.00
78512;PMS5003;67809;55.034;73.462;2023-04-28T11:22:21;13.75;12.00;9.00
78512;PMS5003;67809;55.034;73.462;2023-04-28T11:24:54;10.75;10.00;7.00
78512;PMS5003;67809;55.034;73.462;2023-04-28T11:27:37;11.25;9.25;7.00
78512;PMS5003;67809;55.034;73.462;2023-04-28T11:30:03;11.67;10.00;8.00
78512;PMS5003;67809;55.034;73.462;2023-04-28T11:32:54;12.25;11.00;7.50
78512;PMS5003;67809;55.034;73.462;2023-04-28T11:35:21;11.50;10.00;7.00
78512;PMS5003;67809;55.034;73.462;2023-04-28T11:37:59;11.00;10.00;8.00
78512;PMS5003;67809;55.034;73.462;2023-04-28T11:40:26;13.00;11.00;8.00
78512;PMS5003;67809;55.034;73.462;2023-04-28T11:42:52;12.00;11.00;7.75
78512;PMS5003;67809;55.034;73.462;2023-04-28T11:45:18;11.00;9.00;7.00
78512;PMS5003;67809;55.034;73.462;2023-04-28T11:47:51;10.00;9.00;7.00
78512;PMS5003;67809;55.034;73.462;2023-04-28T11:50:37;10.00;10.00;7.00
78512;PMS5003;67809;55.034;73.462;2023-04-28T11:53:03;11.25;10.00;8.00
78512;PMS5003;67809;55.034;73.462;2023-04-28T11:55:34;11.00;10.00;7.00
78512;PMS5003;67809;55.034;73.462;2023-04-28T11:58:16;9.00;8.75;6.00
78512;PMS5003;67809;55.034;73.462;2023-04-28T12:03:44;10.00;9.00;7.00
78512;PMS5003;67809;55.034;73.462;2023-04-28T12:06:10;9.50;8.00;6.00
78512;PMS5003;67809;55.034;73.462;2023-04-28T12:08:36;10.00;9.50;7.00
78512;PMS5003;67809;55.034;73.462;2023-04-28T12:11:06;9.00;8.00;6.00
78512;PMS5003;67809;55.034;73.462;2023-04-28T12:13:33;9.00;8.00;6.25
78512;PMS5003;67809;55.034;73.462;2023-04-28T12:16:07;10.00;9.00;7.00
78512;PMS5003;67809;55.034;73.462;2023-04-28T12:18:33;10.75;9.00;6.00
78512;PMS5003;67809;55.034;73.462;2023-04-28T12:21:01;10.33;10.00;7.00
78512;PMS5003;67809;55.034;73.462;2023-04-28T12:23:31;11.75;10.00;7.00
78512;PMS5003;67809;55.034;73.462;2023-04-28T12:25:57;10.00;9.00;7.00
78512;PMS5003;67809;55.034;73.462;2023-04-28T12:28:39;9.00;8.00;6.25
78512;PMS5003;67809;55.034;73.462;2023-04-28T12:31:07;10.00;9.00;7.00
78512;PMS5003;67809;55.034;73.462;2023-04-28T12:33:38;8.00;8.00;6.25
78512;PMS5003;67809;55.034;73.462;2023-04-28T12:36:05;8.00;7.00;6.00
78512;PMS5003;67809;55.034;73.462;2023-04-28T12:38:32;10.00;9.00;6.00
78512;PMS5003;67809;55.034;73.462;2023-04-28T12:41:08;42.33;36.00;26.67
78512;PMS5003;67809;55.034;73.462;2023-04-28T12:43:34;206.25;188.00;135.75
78512;PMS5003;67809;55.034;73.462;2023-04-28T12:46:00;202.75;186.75;130.75
78512;PMS5003;67809;55.034;73.462;2023-04-28T12:48:28;189.75;172.75;127.50
78512;PMS5003;67809;55.034;73.462;2023-04-28T12:50:56;206.50;186.25;132.25
78512;PMS5003;67809;55.034;73.462;2023-04-28T12:53:22;198.75;181.00;131.00
78512;PMS5003;67809;55.034;73.462;2023-04-28T12:55:48;204.00;180.25;128.50
78512;PMS5003;67809;55.034;73.462;2023-04-28T12:58:14;191.50;172.00;121.50
78512;PMS5003;67809;55.034;73.462;2023-04-28T13:00:40;191.50;174.25;125.00
78512;PMS5003;67809;55.034;73.462;2023-04-28T13:03:06;219.00;196.75;140.50
78512;PMS5003;67809;55.034;73.462;2023-04-28T13:05:32;250.00;225.50;159.75
78512;PMS5003;67809;55.034;73.462;2023-04-28T13:07:59;281.75;253.50;176.25
78512;PMS5003;67809;55.034;73.462;2023-04-28T13:10:25;262.00;236.00;167.00
78512;PMS5003;67809;55.034;73.462;2023-04-28T13:12:54;304.00;274.00;186.00
78512;PMS5003;67809;55.034;73.462;2023-04-28T13:15:20;309.25;278.75;188.00
78512;PMS5003;67809;55.034;73.462;2023-04-28T13:17:52;331.25;296.25;199.50
78512;PMS5003;67809;55.034;73.462;2023-04-28T13:20:18;326.25;291.00;196.50
78512;PMS5003;67809;55.034;73.462;2023-04-28T13:22:44;305.00;269.75;183.00
78512;PMS5003;67809;55.034;73.462;2023-04-28T13:25:10;279.75;252.25;172.50
78512;PMS5003;67809;55.034;73.462;2023-04-28T13:27:46;281.00;254.00;174.00
78512;PMS5003;67809;55.034;73.462;2023-04-28T13:30:12;270.25;241.50;164.50
78512;PMS5003;67809;55.034;73.462;2023-04-28T13:32:38;260.00;233.33;162.00
78512;PMS5003;67809;55.034;73.462;2023-04-28T13:35:04;252.75;229.00;159.25
78512;PMS5003;67809;55.034;73.462;2023-04-28T13:37:30;242.00;217.00;152.00
78512;PMS5003;67809;55.034;73.462;2023-04-28T13:39:57;220.50;198.75;143.50
78512;PMS5003;67809;55.034;73.462;2023-04-28T13:42:24;215.00;196.00;137.25
78512;PMS5003;67809;55.034;73.462;2023-04-28T13:44:50;208.00;187.50;133.00
78512;PMS5003;67809;55.034;73.462;2023-04-28T13:47:16;185.50;168.00;120.25
78512;PMS5003;67809;55.034;73.462;2023-04-28T13:49:42;187.25;171.25;123.50
78512;PMS5003;67809;55.034;73.462;2023-04-28T13:52:08;192.25;174.50;125.25
78512;PMS5003;67809;55.034;73.462;2023-04-28T13:54:34;203.25;182.00;126.75
78512;PMS5003;67809;55.034;73.462;2023-04-28T13:57:00;196.50;178.00;126.50
78512;PMS5003;67809;55.034;73.462;2023-04-28T13:59:27;180.00;159.00;109.75
78512;PMS5003;67809;55.034;73.462;2023-04-28T14:01:54;174.50;155.00;108.25
78512;PMS5003;67809;55.034;73.462;2023-04-28T14:04:20;186.25;168.00;116.75
78512;PMS5003;67809;55.034;73.462;2023-04-28T14:06:46;198.75;178.50;124.25
78512;PMS5003;67809;55.034;73.462;2023-04-28T14:09:18;193.25;173.75;122.25
78512;PMS5003;67809;55.034;73.462;2023-04-28T14:11:44;352.67;311.67;200.33
78512;PMS5003;67809;55.034;73.462;2023-04-28T14:14:11;451.00;396.00;243.25
78512;PMS5003;67809;55.034;73.462;2023-04-28T14:16:37;534.25;452.50;260.25
78512;PMS5003;67809;55.034;73.462;2023-04-28T14:19:14;511.25;436.25;253.25
78512;PMS5003;67809;55.034;73.462;2023-04-28T14:21:42;565.00;476.00;271.33
78512;PMS5003;67809;55.034;73.462;2023-04-28T14:24:08;530.00;451.25;261.75